Darstellungsparameter: Aktuell verwendete Einstellungen:
Skalierung der Graphiken ... ?
xyx+y,   Skalierungsfaktor:      Skalierung: Modus: x, Faktor: 1
Darstellungszeitraum ... ?
Vom - - bis: - -   Zeitraum: 14.04.2021 - 14.04.2021
Min/Max/Avg-Anzeige ... ?
Zeige MMA aktuell
Zeige MMA Monat
Zeige MMA alles
Zeige --A aktuell
Zeige --A Monat
Zeige --A alles
Keine MMA-Anzeige
MMA:
Keine MMA-Graphiken
MMA-Basis: 14.04.2021 - 14.04.2021
Quicknavigation für Darstellung... ?
Tage:      1T, 2T, 3T, 5T -1T -2T -3T -5T +1T +2T +3T +5T
Wochen: 1W, 2W, 3W -1W -2W -3W +1W +2W +3W
Monate: 1M, 3M, 6M -1M -3M -6M +1M +3M +6M
Jahre:    1J, 3J, 5J, 10J -1J -3J -5J -10J +1J +3J +5J +10J
Nutze für die Darstellung ... ?
Originaldaten oder Mittelwerte auf ...
Stundenbasis Tagesbasis Wochenbasis
Monatsbasis Jahresbasis      Datenbasis: Original-Daten
Darstellen als:
Statistik (Auto) Statistik J:M      Darstellung:

Der gewünschte Datumsbereich war nicht gültig/verfügbar und wurde korrigiert....
Das angegebene Enddatum (14.08.2026 23:59:59) liegt in der Zukunft.
Das angegebene Startdatum (15.02.2026 00:00:00) liegt in der Zukunft.


Zur Graphik,    zurück zur Übersicht aller Sensoren.
 
Tabellarische Datenbersicht: ?
 
Sensor: Nr:Datum:Temp:Feuchte:Taupunkt:
Aussen-T/F 1 14-04-2021 02:00:00 -0.2 C 92 % -1.34 C
2 14-04-2021 02:05:00 -0.2 C 92 % -1.34 C
3 14-04-2021 02:10:00 -0.2 C 92 % -1.34 C
4 14-04-2021 02:15:00 -0.3 C 92 % -1.44 C
5 14-04-2021 02:20:00 -0.3 C 93 % -1.29 C
6 14-04-2021 02:25:00 -0.3 C 93 % -1.29 C
7 14-04-2021 02:30:00 -0.4 C 93 % -1.39 C
8 14-04-2021 02:35:00 -0.4 C 93 % -1.39 C
9 14-04-2021 02:40:00 -0.4 C 93 % -1.39 C
10 14-04-2021 02:45:00 -0.6 C 93 % -1.59 C
11 14-04-2021 02:50:00 -0.6 C 93 % -1.59 C
12 14-04-2021 02:55:00 -0.6 C 93 % -1.59 C
13 14-04-2021 03:00:00 -0.6 C 93 % -1.59 C
14 14-04-2021 03:05:00 -0.6 C 93 % -1.59 C
15 14-04-2021 03:10:00 -0.7 C 93 % -1.69 C
16 14-04-2021 03:15:00 -0.7 C 93 % -1.69 C
17 14-04-2021 03:20:00 -0.7 C 93 % -1.69 C
18 14-04-2021 03:25:00 -0.7 C 93 % -1.69 C
19 14-04-2021 03:30:00 -0.8 C 93 % -1.79 C
20 14-04-2021 03:35:00 -0.8 C 93 % -1.79 C
21 14-04-2021 03:40:00 -0.8 C 93 % -1.79 C
22 14-04-2021 03:45:00 -0.9 C 93 % -1.89 C
23 14-04-2021 03:50:00 -0.9 C 93 % -1.89 C
24 14-04-2021 03:55:00 -0.9 C 93 % -1.89 C
25 14-04-2021 04:00:00 -1 C 93 % -1.99 C
Sensor: Nr:Datum:Temp:Feuchte:Taupunkt:
Aussen-T/F 26 14-04-2021 04:05:00 -1 C 94 % -1.84 C
27 14-04-2021 04:10:00 -1 C 94 % -1.84 C
28 14-04-2021 04:15:00 -1 C 94 % -1.84 C
29 14-04-2021 04:20:00 -1.1 C 94 % -1.94 C
30 14-04-2021 04:25:00 -1.1 C 94 % -1.94 C
31 14-04-2021 04:30:00 -1.1 C 94 % -1.94 C
32 14-04-2021 04:35:00 -1.1 C 94 % -1.94 C
33 14-04-2021 04:40:00 -1.1 C 94 % -1.94 C
34 14-04-2021 04:45:00 -1.1 C 94 % -1.94 C
35 14-04-2021 04:50:00 -1.1 C 94 % -1.94 C
36 14-04-2021 04:55:00 -1.1 C 94 % -1.94 C
37 14-04-2021 05:00:00 -1.1 C 94 % -1.94 C
38 14-04-2021 05:05:00 -1.1 C 94 % -1.94 C
39 14-04-2021 05:10:00 -1.2 C 94 % -2.04 C
40 14-04-2021 05:15:00 -1.2 C 94 % -2.04 C
41 14-04-2021 05:20:00 -1.2 C 94 % -2.04 C
42 14-04-2021 05:25:00 -1.3 C 94 % -2.14 C
43 14-04-2021 05:30:00 -1.3 C 94 % -2.14 C
44 14-04-2021 05:35:00 -1.3 C 94 % -2.14 C
45 14-04-2021 05:40:00 -1.4 C 94 % -2.24 C
46 14-04-2021 05:45:00 -1.5 C 94 % -2.34 C
47 14-04-2021 05:50:00 -1.6 C 94 % -2.44 C
48 14-04-2021 05:55:00 -1.6 C 94 % -2.44 C
49 14-04-2021 06:00:00 -1.7 C 94 % -2.54 C
50 14-04-2021 06:05:00 -1.7 C 94 % -2.54 C
Sensor: Nr:Datum:Temp:Feuchte:Taupunkt:
Aussen-T/F 51 14-04-2021 06:10:00 -1.7 C 94 % -2.54 C
52 14-04-2021 06:15:00 -1.7 C 94 % -2.54 C
53 14-04-2021 06:20:00 -1.7 C 94 % -2.54 C
54 14-04-2021 06:25:00 -1.7 C 94 % -2.54 C
55 14-04-2021 06:30:00 -1.7 C 94 % -2.54 C
56 14-04-2021 06:35:00 -1.7 C 94 % -2.54 C
57 14-04-2021 06:40:00 -1.7 C 94 % -2.54 C
58 14-04-2021 06:45:00 -1.7 C 94 % -2.54 C
59 14-04-2021 06:50:00 -1.7 C 94 % -2.54 C
60 14-04-2021 06:55:00 -1.7 C 94 % -2.54 C
61 14-04-2021 07:00:00 -1.8 C 94 % -2.64 C
62 14-04-2021 07:05:00 -1.8 C 94 % -2.64 C
63 14-04-2021 07:10:00 -1.8 C 94 % -2.64 C
64 14-04-2021 07:15:00 -1.8 C 94 % -2.64 C
65 14-04-2021 07:20:00 -1.8 C 94 % -2.64 C
66 14-04-2021 07:25:00 -1.8 C 94 % -2.64 C
67 14-04-2021 07:30:00 -1.8 C 94 % -2.64 C
68 14-04-2021 07:35:00 -1.7 C 94 % -2.54 C
69 14-04-2021 07:40:00 -1.7 C 95 % -2.39 C
70 14-04-2021 07:45:00 -1.7 C 95 % -2.39 C
71 14-04-2021 07:50:00 -1.7 C 95 % -2.39 C
72 14-04-2021 07:55:00 -1.6 C 95 % -2.29 C
73 14-04-2021 08:00:00 -1.5 C 95 % -2.19 C
74 14-04-2021 08:05:00 -1.4 C 95 % -2.1 C
75 14-04-2021 08:10:00 -1.4 C 95 % -2.1 C
Sensor: Nr:Datum:Temp:Feuchte:Taupunkt:
Aussen-T/F 76 14-04-2021 08:15:00 -1.4 C 95 % -2.1 C
77 14-04-2021 08:20:00 -1.4 C 95 % -2.1 C
78 14-04-2021 08:25:00 -1.3 C 95 % -2 C
79 14-04-2021 08:30:00 -1.3 C 95 % -2 C
80 14-04-2021 08:35:00 -1.3 C 95 % -2 C
81 14-04-2021 08:40:00 -1.2 C 95 % -1.9 C
82 14-04-2021 08:45:00 -1.2 C 95 % -1.9 C
83 14-04-2021 08:50:00 -1.1 C 95 % -1.8 C
84 14-04-2021 08:55:00 -1.1 C 95 % -1.8 C
85 14-04-2021 09:00:00 -0.9 C 95 % -1.6 C
86 14-04-2021 09:05:00 -0.8 C 95 % -1.5 C
87 14-04-2021 09:10:00 -0.7 C 95 % -1.4 C
88 14-04-2021 09:15:00 -0.7 C 95 % -1.4 C
89 14-04-2021 09:20:00 -0.6 C 95 % -1.3 C
90 14-04-2021 09:25:00 -0.4 C 95 % -1.1 C
91 14-04-2021 09:30:00 -0.3 C 95 % -1 C
92 14-04-2021 09:35:00 -0.2 C 96 % -0.76 C
93 14-04-2021 09:40:00 -0.1 C 95 % -0.8 C
94 14-04-2021 09:45:00 0 C 96 % -0.56 C
95 14-04-2021 09:50:00 0.2 C 96 % -0.36 C
96 14-04-2021 09:55:00 0.3 C 96 % -0.26 C
97 14-04-2021 10:00:00 0.4 C 96 % -0.16 C
98 14-04-2021 10:05:00 0.6 C 96 % 0.04 C
99 14-04-2021 10:10:00 0.8 C 96 % 0.24 C
100 14-04-2021 10:15:00 1 C 96 % 0.44 C
Sensor: Nr:Datum:Temp:Feuchte:Taupunkt:
Aussen-T/F 101 14-04-2021 10:20:00 1.2 C 96 % 0.63 C
102 14-04-2021 10:25:00 1.4 C 96 % 0.83 C
103 14-04-2021 10:30:00 1.7 C 96 % 1.13 C
104 14-04-2021 10:35:00 1.9 C 96 % 1.33 C
105 14-04-2021 10:40:00 2.2 C 96 % 1.63 C
106 14-04-2021 10:45:00 2.4 C 96 % 1.83 C
107 14-04-2021 10:50:00 2.7 C 95 % 1.98 C
108 14-04-2021 10:55:00 3 C 95 % 2.28 C
109 14-04-2021 11:00:00 3.3 C 94 % 2.43 C
110 14-04-2021 11:05:00 3.7 C 91 % 2.37 C
111 14-04-2021 11:10:00 4 C 89 % 2.36 C
112 14-04-2021 11:15:00 4.4 C 83 % 1.77 C
113 14-04-2021 11:20:00 5 C 78 % 1.49 C
114 14-04-2021 11:25:00 5.5 C 77 % 1.8 C
115 14-04-2021 11:30:00 5.8 C 64 % -0.47 C
116 14-04-2021 11:35:00 6.3 C 62 % -0.43 C
117 14-04-2021 11:40:00 6.5 C 60 % -0.69 C
118 14-04-2021 11:45:00 6.7 C 56 % -1.44 C
119 14-04-2021 11:50:00 7.1 C 54 % -1.56 C
120 14-04-2021 11:55:00 7.4 C 54 % -1.28 C
121 14-04-2021 12:00:00 7.7 C 53 % -1.26 C
122 14-04-2021 12:05:00 7.8 C 53 % -1.17 C
123 14-04-2021 12:10:00 7.7 C 51 % -1.78 C
124 14-04-2021 12:15:00 7.6 C 49 % -2.41 C
125 14-04-2021 12:20:00 7.5 C 49 % -2.51 C
Sensor: Nr:Datum:Temp:Feuchte:Taupunkt:
Aussen-T/F 126 14-04-2021 12:25:00 7.5 C 50 % -2.23 C
127 14-04-2021 12:30:00 7.4 C 48 % -2.87 C
128 14-04-2021 12:35:00 7.3 C 50 % -2.42 C
129 14-04-2021 12:40:00 7.3 C 48 % -2.97 C
130 14-04-2021 12:45:00 7.3 C 47 % -3.25 C
131 14-04-2021 12:50:00 7.4 C 50 % -2.33 C
132 14-04-2021 12:55:00 7.8 C 47 % -2.79 C
133 14-04-2021 13:00:00 8.1 C 48 % -2.23 C
134 14-04-2021 13:05:00 8.2 C 45 % -3.01 C
135 14-04-2021 13:10:00 8.2 C 48 % -2.14 C
136 14-04-2021 13:15:00 8.2 C 48 % -2.14 C
137 14-04-2021 13:20:00 8.1 C 48 % -2.23 C
138 14-04-2021 13:25:00 8.1 C 46 % -2.8 C
139 14-04-2021 13:30:00 8.1 C 47 % -2.52 C
140 14-04-2021 13:35:00 8.1 C 49 % -1.95 C
141 14-04-2021 13:40:00 8 C 45 % -3.19 C
142 14-04-2021 13:45:00 7.8 C 47 % -2.79 C
143 14-04-2021 13:50:00 7.7 C 50 % -2.05 C
144 14-04-2021 13:55:00 7.6 C 51 % -1.87 C
145 14-04-2021 14:00:00 7.6 C 51 % -1.87 C
146 14-04-2021 14:05:00 7.4 C 51 % -2.06 C
147 14-04-2021 14:10:00 7.5 C 55 % -0.94 C
148 14-04-2021 14:15:00 7.9 C 56 % -0.32 C
149 14-04-2021 14:20:00 8.3 C 59 % 0.77 C
150 14-04-2021 14:25:00 8.4 C 58 % 0.63 C
Sensor: Nr:Datum:Temp:Feuchte:Taupunkt:
Aussen-T/F 151 14-04-2021 14:30:00 8.1 C 57 % 0.11 C
152 14-04-2021 14:35:00 8 C 58 % 0.25 C
153 14-04-2021 14:40:00 7.9 C 59 % 0.4 C
154 14-04-2021 14:45:00 8.1 C 59 % 0.58 C
155 14-04-2021 14:50:00 8.1 C 57 % 0.11 C
156 14-04-2021 14:55:00 8 C 57 % 0.01 C
157 14-04-2021 15:00:00 8.2 C 57 % 0.2 C
158 14-04-2021 15:05:00 8.6 C 55 % 0.08 C
159 14-04-2021 15:10:00 8.8 C 54 % 0.02 C
160 14-04-2021 15:15:00 9.1 C 53 % 0.04 C
161 14-04-2021 15:20:00 8.9 C 50 % -0.94 C
162 14-04-2021 15:25:00 8.6 C 52 % -0.68 C
163 14-04-2021 15:30:00 8.5 C 51 % -1.04 C
164 14-04-2021 15:35:00 8.6 C 54 % -0.17 C
165 14-04-2021 15:40:00 8.8 C 53 % -0.24 C
166 14-04-2021 15:45:00 8.9 C 51 % -0.67 C
167 14-04-2021 15:50:00 8.9 C 53 % -0.15 C
168 14-04-2021 15:55:00 8.5 C 53 % -0.52 C
169 14-04-2021 16:00:00 8.3 C 52 % -0.96 C
170 14-04-2021 16:05:00 8.5 C 52 % -0.78 C
171 14-04-2021 16:10:00 8.7 C 51 % -0.86 C
172 14-04-2021 16:15:00 9.1 C 50 % -0.76 C
173 14-04-2021 16:20:00 9 C 49 % -1.13 C
174 14-04-2021 16:25:00 9.2 C 52 % -0.13 C
175 14-04-2021 16:30:00 9.6 C 50 % -0.3 C
Sensor: Nr:Datum:Temp:Feuchte:Taupunkt:
Aussen-T/F 176 14-04-2021 16:35:00 9.8 C 50 % -0.11 C
177 14-04-2021 16:40:00 9.9 C 49 % -0.3 C
178 14-04-2021 16:45:00 10.1 C 49 % -0.11 C
179 14-04-2021 16:50:00 10.1 C 48 % -0.4 C
180 14-04-2021 16:55:00 9.9 C 48 % -0.58 C
181 14-04-2021 17:00:00 8.8 C 60 % 1.48 C
182 14-04-2021 17:05:00 7.8 C 65 % 1.64 C
183 14-04-2021 17:10:00 7.8 C 68 % 2.27 C
184 14-04-2021 17:15:00 7.4 C 68 % 1.89 C
185 14-04-2021 17:20:00 7.2 C 69 % 1.9 C
186 14-04-2021 17:25:00 7.1 C 70 % 2.01 C
187 14-04-2021 17:30:00 6.8 C 70 % 1.72 C
188 14-04-2021 17:35:00 6.6 C 71 % 1.73 C
189 14-04-2021 17:40:00 6.6 C 72 % 1.92 C
190 14-04-2021 17:45:00 6.8 C 72 % 2.12 C
191 14-04-2021 17:50:00 6.8 C 70 % 1.72 C
192 14-04-2021 17:55:00 6.8 C 67 % 1.11 C
193 14-04-2021 18:00:00 6.9 C 67 % 1.21 C
194 14-04-2021 18:05:00 7 C 67 % 1.3 C
195 14-04-2021 18:10:00 7.1 C 67 % 1.4 C
196 14-04-2021 18:15:00 7.1 C 66 % 1.19 C
197 14-04-2021 18:20:00 7.1 C 64 % 0.76 C
198 14-04-2021 18:25:00 7 C 63 % 0.45 C
199 14-04-2021 18:30:00 7 C 64 % 0.67 C
200 14-04-2021 18:35:00 6.9 C 62 % 0.14 C
Sensor: Nr:Datum:Temp:Feuchte:Taupunkt:
Aussen-T/F 201 14-04-2021 18:40:00 6.9 C 62 % 0.14 C
202 14-04-2021 18:45:00 6.9 C 62 % 0.14 C
203 14-04-2021 18:50:00 6.9 C 65 % 0.79 C
204 14-04-2021 18:55:00 7.2 C 64 % 0.86 C
205 14-04-2021 19:00:00 7.6 C 63 % 1.02 C
206 14-04-2021 19:05:00 7.9 C 61 % 0.86 C
207 14-04-2021 19:10:00 7.7 C 66 % 1.76 C
208 14-04-2021 19:15:00 7.3 C 68 % 1.8 C
209 14-04-2021 19:20:00 6.9 C 69 % 1.62 C
210 14-04-2021 19:25:00 6.3 C 71 % 1.44 C
211 14-04-2021 19:30:00 5.9 C 74 % 1.63 C
212 14-04-2021 19:35:00 5.7 C 76 % 1.81 C
213 14-04-2021 19:40:00 5.6 C 77 % 1.89 C
214 14-04-2021 19:45:00 5.5 C 77 % 1.8 C
215 14-04-2021 19:50:00 5.4 C 77 % 1.7 C
216 14-04-2021 19:55:00 5.4 C 77 % 1.7 C
217 14-04-2021 20:00:00 5.3 C 77 % 1.6 C
218 14-04-2021 20:05:00 5.3 C 78 % 1.78 C
219 14-04-2021 20:10:00 5.3 C 78 % 1.78 C
220 14-04-2021 20:15:00 5.2 C 79 % 1.86 C
221 14-04-2021 20:20:00 5 C 78 % 1.49 C
222 14-04-2021 20:25:00 4.8 C 79 % 1.47 C
223 14-04-2021 20:30:00 4.6 C 79 % 1.28 C
224 14-04-2021 20:35:00 4.3 C 80 % 1.16 C
225 14-04-2021 20:40:00 4.1 C 80 % 0.97 C
Sensor: Nr:Datum:Temp:Feuchte:Taupunkt:
Aussen-T/F 226 14-04-2021 20:45:00 3.9 C 81 % 0.95 C
227 14-04-2021 20:50:00 3.8 C 82 % 1.02 C
228 14-04-2021 20:55:00 3.7 C 82 % 0.92 C
229 14-04-2021 21:00:00 3.6 C 83 % 0.99 C
230 14-04-2021 21:05:00 3.5 C 83 % 0.89 C
231 14-04-2021 21:10:00 3.5 C 84 % 1.06 C
232 14-04-2021 21:15:00 3.4 C 84 % 0.96 C
233 14-04-2021 21:20:00 3.3 C 84 % 0.86 C
234 14-04-2021 21:25:00 3.3 C 84 % 0.86 C
235 14-04-2021 21:30:00 3.3 C 85 % 1.03 C
236 14-04-2021 21:35:00 3.3 C 85 % 1.03 C
237 14-04-2021 21:40:00 3.3 C 85 % 1.03 C
238 14-04-2021 21:45:00 3.2 C 85 % 0.93 C
239 14-04-2021 21:50:00 3.2 C 86 % 1.09 C
240 14-04-2021 21:55:00 3.1 C 86 % 0.99 C
241 14-04-2021 22:00:00 3.1 C 86 % 0.99 C
242 14-04-2021 22:05:00 3.1 C 87 % 1.15 C
243 14-04-2021 22:10:00 3.1 C 87 % 1.15 C
244 14-04-2021 22:15:00 3.1 C 87 % 1.15 C
245 14-04-2021 22:20:00 3.1 C 87 % 1.15 C
246 14-04-2021 22:25:00 3.1 C 87 % 1.15 C
247 14-04-2021 22:30:00 3.2 C 87 % 1.25 C
248 14-04-2021 22:35:00 3.2 C 88 % 1.41 C
249 14-04-2021 22:40:00 3.1 C 88 % 1.31 C
250 14-04-2021 22:45:00 3.1 C 88 % 1.31 C
Sensor: Nr:Datum:Temp:Feuchte:Taupunkt:
Aussen-T/F 251 14-04-2021 22:50:00 2.9 C 87 % 0.96 C
252 14-04-2021 22:55:00 2.8 C 88 % 1.02 C
253 14-04-2021 23:00:00 2.8 C 87 % 0.86 C
254 14-04-2021 23:05:00 2.7 C 88 % 0.92 C
255 14-04-2021 23:10:00 2.6 C 88 % 0.82 C
256 14-04-2021 23:15:00 2.5 C 88 % 0.72 C
257 14-04-2021 23:20:00 2.4 C 88 % 0.62 C
258 14-04-2021 23:25:00 2.3 C 88 % 0.52 C
259 14-04-2021 23:30:00 2.3 C 89 % 0.68 C
260 14-04-2021 23:35:00 2.2 C 89 % 0.58 C
261 14-04-2021 23:40:00 2 C 89 % 0.38 C
262 14-04-2021 23:45:00 1.9 C 89 % 0.28 C
263 14-04-2021 23:50:00 1.8 C 89 % 0.19 C
264 14-04-2021 23:55:00 1.7 C 89 % 0.09 C

Legende:
   Min
   Max


Maximal/Minimal-Werte vom 14.04.2021 - 14.04.2021

Sensor Min Max Avg
Temp
(Aussen-T/F)
-1.8 °C
14-04-2021  07:00:00
10.1 °C
14-04-2021  16:45:00
3.36 °C
Feuchte
(Aussen-T/F)
45 %
14-04-2021  13:05:00
96 %
14-04-2021  09:35:00
78.2 %
Taupunkt
(Aussen-T/F)
-3.25 C
14-04-2021  12:45:00
2.43 C
14-04-2021  11:00:00
-0.52 C

Die Daten stammen von einer Davis Vantage Pro 2 Wetter-Station und werden unter Linux mit der Software wview2wettercgi und aufbereitet. Alle Angaben erfolgen ohne Gewähr für ihre Vollständigkeit oder Richtigkeit.
Kontakt: Rainer Krienke krienke@uni-koblenz.de . Meine Webseiten an der Uni Koblenz oder privat.
Version: $Revision: 0.78 $